Time;durP1;ratioP1;P1;durP2;ratioP2;P2;SDS_P1;SDS_P2;PMS_P1;PMS_P2;Temp;Humidity;BMP_temperature;BMP_pressure;BME280_temperature;BME280_humidity;BME280_pressure;Samples;Min_cycle;Max_cycle;Signal;HPM_P1;HPM_P2
2022/08/11 00:00:19;;;;;;;1.87;1.40;;;23.80;68.30;;;;;;5046196;28;20041;-43
2022/08/11 00:02:49;;;;;;;2.20;1.80;;;23.70;68.50;;;;;;5045457;28;20294;-43
2022/08/11 00:05:20;;;;;;;1.75;1.40;;;23.70;68.60;;;;;;5045204;28;20040;-43
2022/08/11 00:07:47;;;;;;;1.88;1.27;;;23.60;68.80;;;;;;5044914;28;20039;-43
2022/08/11 00:10:15;;;;;;;1.95;1.73;;;23.60;68.90;;;;;;5045881;28;20477;-43
2022/08/11 00:12:42;;;;;;;1.77;1.60;;;23.50;69.00;;;;;;5044566;28;20061;-43
2022/08/11 00:15:09;;;;;;;1.60;1.50;;;23.50;69.10;;;;;;5045589;28;20021;-42
2022/08/11 00:17:36;;;;;;;1.70;1.33;;;23.50;69.20;;;;;;5045679;28;20024;-43
2022/08/11 00:20:07;;;;;;;1.65;1.33;;;23.40;69.30;;;;;;5044887;28;20480;-43
2022/08/11 00:22:38;;;;;;;1.88;1.50;;;23.40;69.50;;;;;;5045264;28;20033;-43
2022/08/11 00:25:18;;;;;;;2.00;1.33;;;23.30;69.60;;;;;;5045605;28;20020;-43
2022/08/11 00:27:45;;;;;;;1.55;1.45;;;23.30;69.70;;;;;;5044544;28;20037;-43
2022/08/11 00:30:12;;;;;;;2.00;1.25;;;23.30;69.80;;;;;;5045401;28;20381;-43
2022/08/11 00:32:40;;;;;;;1.33;1.25;;;23.30;69.80;;;;;;5044774;28;20507;-43
2022/08/11 00:35:11;;;;;;;2.50;1.45;;;23.30;70.00;;;;;;5044810;28;20100;-43
2022/08/11 00:37:38;;;;;;;1.40;1.30;;;23.30;70.00;;;;;;5045403;28;20203;-43
2022/08/11 00:40:13;;;;;;;1.40;1.30;;;23.20;70.10;;;;;;5044674;28;20033;-43
2022/08/11 00:43:12;;;;;;;1.60;1.40;;;23.20;70.20;;;;;;5025195;28;20037;-43
2022/08/11 00:46:02;;;;;;;1.38;1.27;;;23.20;70.30;;;;;;5043993;28;20476;-42
2022/08/11 00:49:00;;;;;;;1.10;1.00;;;23.10;70.40;;;;;;5044591;28;20132;-43
2022/08/11 00:51:46;;;;;;;1.27;1.10;;;23.10;70.50;;;;;;5011791;28;20034;-42
2022/08/11 00:54:31;;;;;;;2.65;1.08;;;23.10;70.70;;;;;;5029381;28;20571;-43
2022/08/11 00:57:26;;;;;;;1.08;0.93;;;23.10;70.70;;;;;;5035911;28;20033;-43
2022/08/11 01:00:12;;;;;;;1.30;1.20;;;23.00;70.80;;;;;;5044609;28;20033;-43
2022/08/11 01:02:45;;;;;;;1.40;1.30;;;23.00;71.00;;;;;;5044276;28;20064;-43
2022/08/11 01:05:27;;;;;;;1.48;1.20;;;23.00;71.10;;;;;;5045047;28;20071;-43
2022/08/11 01:08:24;;;;;;;2.33;1.17;;;22.90;71.20;;;;;;5044154;28;20029;-43
2022/08/11 01:11:22;;;;;;;1.67;1.15;;;22.90;71.40;;;;;;5044912;28;20104;-43
2022/08/11 01:14:19;;;;;;;2.03;0.90;;;22.90;71.40;;;;;;5024698;28;20041;-43
2022/08/11 01:17:08;;;;;;;1.27;1.17;;;22.90;71.40;;;;;;5023453;28;20566;-43
2022/08/11 01:19:50;;;;;;;1.58;1.10;;;22.80;71.50;;;;;;5033626;28;20040;-44
2022/08/11 01:22:22;;;;;;;;;;;22.80;71.80;;;;;;5046734;28;20032;-43
2022/08/11 01:25:43;;;;;;;1.30;1.20;;;22.70;71.90;;;;;;5048428;28;20335;-44
2022/08/11 01:28:46;;;;;;;1.70;1.40;;;22.70;72.00;;;;;;5018334;28;20484;-42
2022/08/11 01:31:48;;;;;;;1.98;1.42;;;22.60;72.30;;;;;;5047983;28;20043;-43
2022/08/11 01:34:26;;;;;;;1.70;1.25;;;22.50;72.50;;;;;;5049452;28;20472;-42
2022/08/11 01:37:47;;;;;;;1.90;1.20;;;22.50;72.60;;;;;;5048013;28;20044;-43
2022/08/11 01:40:15;;;;;;;1.42;1.30;;;22.40;72.70;;;;;;5029210;28;20049;-43
2022/08/11 01:45:49;;;;;;;1.95;1.13;;;22.30;73.10;;;;;;5048831;28;20401;-43
2022/08/11 01:48:39;;;;;;;2.20;1.23;;;22.30;73.20;;;;;;5048772;28;20055;-43
2022/08/11 01:51:29;;;;;;;1.00;0.90;;;22.20;73.20;;;;;;5037291;28;20061;-42
2022/08/11 01:54:00;;;;;;;1.63;1.20;;;22.20;73.40;;;;;;5039085;28;20443;-43
2022/08/11 01:56:51;;;;;;;1.35;1.25;;;22.20;73.50;;;;;;5047771;28;20883;-43
2022/08/11 01:59:36;;;;;;;1.40;1.30;;;22.20;73.60;;;;;;5047865;28;20035;-43
2022/08/11 02:02:44;;;;;;;1.30;1.20;;;22.20;73.80;;;;;;5047635;28;20032;-43
2022/08/11 02:05:28;;;;;;;1.30;1.20;;;22.10;73.70;;;;;;5046857;28;20103;-43
2022/08/11 02:08:17;;;;;;;1.45;1.20;;;22.10;73.70;;;;;;5048214;28;20029;-42
2022/08/11 02:13:43;;;;;;;1.48;1.38;;;22.00;73.90;;;;;;5047590;28;20127;-43
2022/08/11 02:16:18;;;;;;;2.87;1.30;;;22.00;74.30;;;;;;5048214;28;20021;-43
2022/08/11 02:24:45;;;;;;;1.67;1.58;;;21.90;74.90;;;;;;5046801;28;20143;-44
2022/08/11 02:27:21;;;;;;;2.00;1.50;;;21.90;75.00;;;;;;5046900;28;20094;-43
2022/08/11 02:30:07;;;;;;;1.58;1.20;;;21.80;75.20;;;;;;5047201;28;20029;-43
2022/08/11 02:35:54;;;;;;;1.83;1.42;;;21.80;75.30;;;;;;5040189;28;20063;-43
2022/08/11 02:38:44;;;;;;;2.25;1.52;;;21.70;75.40;;;;;;5044736;28;20036;-42
2022/08/11 02:44:08;;;;;;;2.03;1.48;;;21.70;75.70;;;;;;5047175;28;20043;-43
2022/08/11 02:46:49;;;;;;;1.63;1.30;;;21.70;75.70;;;;;;5046498;28;20042;-43
2022/08/11 02:52:33;;;;;;;1.85;1.15;;;21.60;75.80;;;;;;5028243;28;20365;-43
2022/08/11 02:54:58;;;;;;;1.75;1.10;;;21.60;75.90;;;;;;5045893;28;20032;-43
2022/08/11 02:57:40;;;;;;;1.05;1.00;;;21.50;75.80;;;;;;5047111;28;20385;-43
2022/08/11 03:00:12;;;;;;;1.77;1.38;;;21.60;76.00;;;;;;5046558;28;20504;-43
2022/08/11 03:02:56;;;;;;;1.42;1.25;;;21.50;76.00;;;;;;5046044;28;20064;-43
2022/08/11 03:05:48;;;;;;;2.58;1.55;;;21.50;76.20;;;;;;5047021;28;20450;-44
2022/08/11 03:08:51;;;;;;;1.50;1.40;;;21.50;76.30;;;;;;5046673;28;20032;-42
2022/08/11 03:17:20;;;;;;;1.67;1.30;;;21.50;76.50;;;;;;5046810;28;20106;-42
2022/08/11 03:20:07;;;;;;;1.80;1.60;;;21.50;76.60;;;;;;5045905;28;20052;-43
2022/08/11 03:23:07;;;;;;;2.05;1.60;;;21.40;76.60;;;;;;5045929;28;20558;-43
2022/08/11 03:26:13;;;;;;;1.50;1.40;;;21.40;76.70;;;;;;5046310;28;20041;-43
2022/08/11 03:28:51;;;;;;;2.80;1.40;;;21.40;76.80;;;;;;5026469;28;20476;-43
2022/08/11 03:31:36;;;;;;;2.13;1.50;;;21.30;76.80;;;;;;5046388;28;20025;-43
2022/08/11 03:34:08;;;;;;;1.27;1.20;;;21.30;76.90;;;;;;5046375;28;20059;-44
2022/08/11 03:36:33;;;;;;;1.50;1.40;;;21.30;77.10;;;;;;5045146;28;20025;-42
2022/08/11 03:39:08;;;;;;;1.52;1.42;;;21.30;77.20;;;;;;5046220;28;20036;-42
2022/08/11 03:41:44;;;;;;;1.75;1.40;;;21.20;77.30;;;;;;5045622;28;20630;-43
2022/08/11 03:44:19;;;;;;;2.22;1.70;;;21.30;77.40;;;;;;5045801;28;20134;-43
2022/08/11 03:47:00;;;;;;;3.65;1.60;;;21.20;77.40;;;;;;5045413;28;20113;-43
2022/08/11 03:49:56;;;;;;;1.50;1.40;;;21.20;77.80;;;;;;5046111;28;20136;-42
2022/08/11 03:52:47;;;;;;;1.83;1.50;;;21.20;77.90;;;;;;5046400;28;20126;-43
2022/08/11 03:55:33;;;;;;;2.53;1.52;;;21.20;77.90;;;;;;5046697;28;20024;-42
2022/08/11 03:58:30;;;;;;;1.95;1.60;;;21.20;78.10;;;;;;5036166;28;20434;-43
2022/08/11 04:01:28;;;;;;;1.80;1.48;;;21.10;78.10;;;;;;5046206;28;20032;-43
2022/08/11 04:04:00;;;;;;;2.75;1.60;;;21.00;78.20;;;;;;5045900;28;20080;-41
2022/08/11 04:06:47;;;;;;;1.60;1.50;;;21.00;78.30;;;;;;5045660;28;20032;-43
2022/08/11 04:09:50;;;;;;;1.85;1.55;;;21.00;78.50;;;;;;5045814;28;20037;-43
2022/08/11 04:12:41;;;;;;;1.60;1.50;;;20.90;78.60;;;;;;5044857;28;20511;-43
2022/08/11 04:16:01;;;;;;;1.58;1.48;;;20.90;78.60;;;;;;5046078;28;20071;-43
2022/08/11 04:18:49;;;;;;;2.15;1.48;;;20.90;79.30;;;;;;5045508;28;20041;-43
2022/08/11 04:21:34;;;;;;;1.92;1.67;;;20.80;78.70;;;;;;5045760;28;20492;-44
2022/08/11 04:24:26;;;;;;;2.03;1.70;;;20.80;78.80;;;;;;5045606;28;20028;-43
2022/08/11 04:27:19;;;;;;;2.22;1.77;;;20.80;79.00;;;;;;5044751;28;20033;-43
2022/08/11 04:30:04;;;;;;;1.50;1.40;;;20.70;79.00;;;;;;5045437;28;20584;-43
2022/08/11 04:33:09;;;;;;;1.83;1.60;;;20.80;79.00;;;;;;5044477;28;20438;-42
2022/08/11 04:35:52;;;;;;;2.13;1.65;;;20.80;79.70;;;;;;5025605;28;20040;-44
2022/08/11 04:38:18;;;;;;;1.23;1.13;;;20.80;79.10;;;;;;5043752;28;20021;-41
2022/08/11 04:41:13;;;;;;;1.42;1.30;;;20.80;79.00;;;;;;5044623;28;20438;-42
2022/08/11 04:44:16;;;;;;;2.65;1.60;;;20.70;79.10;;;;;;5045343;28;20028;-42
2022/08/11 04:46:42;;;;;;;;;;;20.80;79.20;;;;;;5045500;28;20044;-42
2022/08/11 05:01:40;;;;;;;1.90;1.70;;;20.70;79.30;;;;;;5029360;28;20072;-44
2022/08/11 05:07:16;;;;;;;1.83;1.63;;;20.70;79.40;;;;;;5049051;28;20144;-43
2022/08/11 05:10:12;;;;;;;2.17;1.55;;;20.70;79.50;;;;;;5048337;28;20022;-43
2022/08/11 05:12:41;;;;;;;1.88;1.60;;;20.70;79.50;;;;;;5031921;28;20423;-43
2022/08/11 05:35:44;;;;;;;4.03;1.60;;;20.90;79.40;;;;;;5047990;28;20438;-43
2022/08/11 05:58:02;;;;;;;2.20;1.60;;;21.20;79.20;;;;;;5047012;28;20047;-43
2022/08/11 06:00:28;;;;;;;2.55;1.60;;;21.20;79.10;;;;;;5047405;28;20279;-43
2022/08/11 06:03:00;;;;;;;2.30;1.70;;;21.20;79.10;;;;;;5047601;28;20044;-42
2022/08/11 06:05:36;;;;;;;2.20;1.52;;;21.30;79.00;;;;;;5046363;28;20126;-43
2022/08/11 06:08:04;;;;;;;1.85;1.73;;;21.30;79.00;;;;;;5046717;28;20120;-43
2022/08/11 06:10:36;;;;;;;3.53;1.70;;;21.30;78.80;;;;;;5045381;28;20040;-43
2022/08/11 06:13:03;;;;;;;2.25;1.50;;;21.40;78.80;;;;;;5048022;28;20044;-43
2022/08/11 06:15:33;;;;;;;2.00;1.52;;;21.40;78.80;;;;;;5046656;28;20523;-43
2022/08/11 06:18:01;;;;;;;1.83;1.50;;;21.50;78.70;;;;;;5046124;28;20045;-43
2022/08/11 06:20:31;;;;;;;2.05;1.50;;;21.50;78.60;;;;;;5046722;28;20024;-43
2022/08/11 06:23:06;;;;;;;1.73;1.40;;;21.50;78.50;;;;;;5047598;28;20021;-44
2022/08/11 06:25:34;;;;;;;1.40;1.30;;;21.60;78.40;;;;;;5046942;28;20037;-43
2022/08/11 06:28:04;;;;;;;1.85;1.33;;;21.60;78.30;;;;;;5047817;28;20029;-42
2022/08/11 06:30:39;;;;;;;2.58;1.70;;;21.70;78.40;;;;;;5047589;28;20083;-43
2022/08/11 06:33:12;;;;;;;1.75;1.63;;;21.70;78.30;;;;;;5036699;28;20033;-43
2022/08/11 06:36:04;;;;;;;2.30;1.13;;;21.70;78.20;;;;;;5047120;28;20027;-42
2022/08/11 06:38:39;;;;;;;2.30;1.20;;;21.80;78.30;;;;;;5038701;28;20040;-43
2022/08/11 06:41:40;;;;;;;1.45;1.23;;;21.80;78.10;;;;;;5047262;28;20025;-44
2022/08/11 06:44:11;;;;;;;1.77;1.30;;;21.80;78.10;;;;;;5046408;28;20029;-42
2022/08/11 06:46:42;;;;;;;1.17;1.08;;;21.90;77.90;;;;;;5046159;28;20045;-43
2022/08/11 06:51:10;;;;;;;1.45;1.35;;;21.90;77.80;;;;;;5047556;28;20028;-42
2022/08/11 06:52:03;;;;;;;1.83;1.20;;;22.00;77.80;;;;;;5046709;28;20029;-42
2022/08/11 06:54:31;;;;;;;2.42;1.40;;;22.00;77.70;;;;;;5046577;28;20021;-43
2022/08/11 07:02:36;;;;;;;2.67;1.40;;;22.10;77.50;;;;;;5046379;28;20095;-43
2022/08/11 07:05:16;;;;;;;1.55;1.40;;;22.20;77.50;;;;;;5047466;28;20050;-43
2022/08/11 07:16:39;;;;;;;2.33;1.60;;;22.30;77.30;;;;;;5047346;28;20095;-43
2022/08/11 07:30:30;;;;;;;3.00;1.40;;;22.60;76.70;;;;;;5046248;28;20040;-42
2022/08/11 07:32:58;;;;;;;2.25;1.73;;;22.60;76.60;;;;;;5045763;28;20077;-44
2022/08/11 07:35:37;;;;;;;3.40;1.70;;;22.60;76.50;;;;;;5044712;28;20356;-44
2022/08/11 07:38:14;;;;;;;2.22;1.45;;;22.70;76.10;;;;;;5046239;28;20452;-42
2022/08/11 07:40:42;;;;;;;3.05;2.20;;;22.80;75.90;;;;;;5046640;28;20110;-42
2022/08/11 07:43:09;;;;;;;2.13;1.92;;;22.80;75.50;;;;;;5044934;28;20049;-45
2022/08/11 07:53:51;;;;;;;1.65;1.55;;;23.10;75.00;;;;;;5045470;28;20090;-43
2022/08/11 07:56:18;;;;;;;1.73;1.60;;;23.10;75.00;;;;;;5045664;28;20013;-43
2022/08/11 08:18:07;;;;;;;2.97;1.67;;;23.70;73.90;;;;;;5024552;28;20048;-43
2022/08/11 08:20:45;;;;;;;1.75;1.48;;;23.70;73.60;;;;;;5041254;28;20029;-44
2022/08/11 08:23:12;;;;;;;1.83;1.48;;;23.80;73.60;;;;;;5043664;28;20428;-43
2022/08/11 08:25:41;;;;;;;2.50;1.60;;;23.80;73.50;;;;;;5044197;28;20044;-43
2022/08/11 08:28:09;;;;;;;1.50;1.40;;;23.90;73.50;;;;;;5045991;28;20143;-44
2022/08/11 08:30:54;;;;;;;1.52;1.42;;;24.00;73.40;;;;;;5045292;28;20025;-43
2022/08/11 08:33:20;;;;;;;2.05;1.50;;;24.00;73.40;;;;;;5026351;28;20035;-42
2022/08/11 08:36:10;;;;;;;1.50;1.40;;;24.10;73.30;;;;;;5039649;28;20032;-43
2022/08/11 08:38:46;;;;;;;1.40;1.30;;;24.10;73.20;;;;;;5024863;28;20401;-43
2022/08/11 08:41:14;;;;;;;1.85;1.38;;;24.20;73.10;;;;;;5041845;28;20048;-43
2022/08/11 08:43:41;;;;;;;2.63;1.38;;;24.20;73.00;;;;;;5025629;28;20026;-42
2022/08/11 08:46:10;;;;;;;2.08;1.40;;;24.30;73.20;;;;;;5038737;28;20036;-43
2022/08/11 08:48:36;;;;;;;1.98;1.40;;;24.30;73.10;;;;;;5044617;28;20025;-44
2022/08/11 08:53:54;;;;;;;1.90;1.27;;;24.40;72.70;;;;;;5045184;28;20047;-44
2022/08/11 08:56:26;;;;;;;1.70;1.60;;;24.50;72.60;;;;;;5045424;28;20051;-44
2022/08/11 08:58:52;;;;;;;1.40;1.30;;;24.50;72.40;;;;;;5045249;28;20029;-43
2022/08/11 09:01:21;;;;;;;3.35;1.80;;;24.60;72.30;;;;;;5044471;28;20051;-43
2022/08/11 09:03:47;;;;;;;2.38;1.60;;;24.70;72.20;;;;;;5044759;28;20044;-43
2022/08/11 09:06:15;;;;;;;3.75;1.40;;;24.70;72.00;;;;;;5045052;28;20044;-43
2022/08/11 09:08:42;;;;;;;1.63;1.52;;;24.80;71.90;;;;;;5045761;28;20018;-43
2022/08/11 09:13:55;;;;;;;1.85;1.30;;;24.90;71.60;;;;;;5044506;28;20102;-42
2022/08/11 09:16:23;;;;;;;1.75;1.30;;;25.00;71.40;;;;;;5045541;28;20044;-43
2022/08/11 09:18:50;;;;;;;1.88;1.40;;;25.10;71.30;;;;;;5045036;28;20075;-43
2022/08/11 09:21:21;;;;;;;1.45;1.15;;;25.10;71.20;;;;;;5044574;28;20546;-43
2022/08/11 09:29:33;;;;;;;1.70;1.60;;;25.30;70.70;;;;;;5022103;28;20045;-43
2022/08/11 09:31:59;;;;;;;1.52;1.35;;;25.30;70.40;;;;;;5040451;28;20025;-43
2022/08/11 09:34:26;;;;;;;1.60;1.50;;;25.40;70.20;;;;;;5044496;28;20025;-43
2022/08/11 09:44:45;;;;;;;3.03;1.75;;;25.60;69.40;;;;;;5044424;28;20378;-43
2022/08/11 09:45:13;;;;;;;2.85;1.52;;;25.70;69.20;;;;;;5048618;28;20098;-44
2022/08/11 09:47:41;;;;;;;1.80;1.50;;;25.70;68.90;;;;;;5048224;28;20037;-44
2022/08/11 09:50:09;;;;;;;1.65;1.55;;;25.80;68.70;;;;;;5047290;28;20119;-43
2022/08/11 09:52:38;;;;;;;1.52;1.40;;;25.80;68.20;;;;;;5048234;28;20055;-43
2022/08/11 09:55:09;;;;;;;1.75;1.65;;;25.90;68.10;;;;;;5047990;28;20480;-43
2022/08/11 10:00:31;;;;;;;1.70;1.60;;;26.00;67.30;;;;;;5048608;28;20122;-43
2022/08/11 10:02:57;;;;;;;3.35;1.70;;;26.10;67.00;;;;;;5046666;28;20461;-43
2022/08/11 10:08:13;;;;;;;1.60;1.50;;;26.30;66.10;;;;;;5048666;28;20390;-44
2022/08/11 10:10:39;;;;;;;1.65;1.52;;;26.30;66.10;;;;;;5047255;28;20116;-42
2022/08/11 10:13:21;;;;;;;2.65;1.67;;;26.30;66.10;;;;;;5047594;28;20021;-43
2022/08/11 10:15:48;;;;;;;4.03;1.70;;;26.40;65.80;;;;;;5047387;28;20028;-44
2022/08/11 10:21:10;;;;;;;1.45;1.20;;;26.50;65.60;;;;;;5048175;28;20060;-43
2022/08/11 10:34:42;;;;;;;1.83;1.45;;;26.80;64.70;;;;;;5047778;28;20055;-43
2022/08/11 10:37:08;;;;;;;2.45;1.30;;;26.80;64.10;;;;;;5047234;28;20067;-44
2022/08/11 10:39:36;;;;;;;1.50;1.33;;;26.90;63.70;;;;;;5046337;28;20115;-43
2022/08/11 10:44:50;;;;;;;1.60;1.30;;;27.10;63.60;;;;;;5045871;28;20469;-44
2022/08/11 10:47:35;;;;;;;1.60;1.50;;;27.20;63.30;;;;;;5047248;28;20140;-44
2022/08/11 11:01:06;;;;;;;1.90;1.52;;;27.40;61.70;;;;;;5045664;28;20040;-44
2022/08/11 11:03:34;;;;;;;1.60;1.50;;;27.40;62.10;;;;;;5046908;28;20087;-43
2022/08/11 11:06:25;;;;;;;1.40;1.30;;;27.50;62.20;;;;;;5046088;28;20044;-43
2022/08/11 11:09:09;;;;;;;1.60;1.38;;;27.50;62.00;;;;;;5027261;28;20018;-43
2022/08/11 11:20:02;;;;;;;1.35;1.25;;;27.70;62.30;;;;;;5045861;28;20396;-44
2022/08/11 11:22:37;;;;;;;1.42;1.30;;;27.80;62.30;;;;;;5046252;28;20025;-43
2022/08/11 11:25:21;;;;;;;3.00;1.48;;;27.80;62.10;;;;;;5046714;28;20697;-43
2022/08/11 11:28:05;;;;;;;1.40;1.30;;;27.80;61.60;;;;;;5045086;28;20362;-43
2022/08/11 11:30:41;;;;;;;1.20;1.10;;;27.90;61.60;;;;;;5046177;28;20032;-44
2022/08/11 11:33:37;;;;;;;1.05;1.02;;;27.90;61.80;;;;;;5036629;28;20033;-44
2022/08/11 11:36:24;;;;;;;1.75;1.40;;;27.90;62.00;;;;;;5045748;28;20373;-43
2022/08/11 11:38:51;;;;;;;1.70;1.45;;;28.00;61.60;;;;;;5046466;28;20120;-43
2022/08/11 11:41:25;;;;;;;1.30;1.20;;;28.00;61.00;;;;;;5045762;28;20473;-43
2022/08/11 11:43:57;;;;;;;1.60;1.50;;;28.10;60.40;;;;;;5046265;28;20029;-44
2022/08/11 11:46:28;;;;;;;1.85;1.50;;;28.10;59.80;;;;;;5046320;28;20079;-44
2022/08/11 11:48:55;;;;;;;1.50;1.40;;;28.20;59.60;;;;;;5045581;28;20043;-43
2022/08/11 11:51:25;;;;;;;1.42;1.33;;;28.20;59.30;;;;;;5046151;28;20120;-43
2022/08/11 11:53:51;;;;;;;1.85;1.52;;;28.20;59.40;;;;;;5045804;28;20013;-43
2022/08/11 11:56:18;;;;;;;2.92;1.20;;;28.30;59.60;;;;;;5045626;28;20480;-43
2022/08/11 12:01:30;;;;;;;1.40;1.30;;;28.30;59.60;;;;;;5045889;28;20048;-43
2022/08/11 12:03:57;;;;;;;1.60;1.10;;;28.30;59.50;;;;;;5044323;28;20045;-43
2022/08/11 12:06:26;;;;;;;1.63;1.50;;;28.30;59.20;;;;;;5046034;28;20060;-43
2022/08/11 12:08:56;;;;;;;1.40;1.30;;;28.40;58.40;;;;;;5045351;28;20702;-43
2022/08/11 12:14:09;;;;;;;1.30;1.20;;;28.40;58.70;;;;;;5044004;28;20045;-43
2022/08/11 12:16:38;;;;;;;1.98;1.30;;;28.50;58.70;;;;;;5045394;28;20028;-44
2022/08/11 12:19:07;;;;;;;1.40;1.30;;;28.60;58.50;;;;;;5045632;28;20028;-43
2022/08/11 12:21:36;;;;;;;2.28;1.30;;;28.70;58.00;;;;;;5046162;28;20024;-43
2022/08/11 12:29:14;;;;;;;1.38;1.00;;;28.80;58.60;;;;;;5045518;28;20021;-43
2022/08/11 12:31:40;;;;;;;1.15;1.05;;;28.80;58.50;;;;;;5044491;28;20468;-43
2022/08/11 12:34:11;;;;;;;1.17;1.10;;;28.90;58.40;;;;;;5045879;28;20116;-43
2022/08/11 12:36:40;;;;;;;1.10;1.10;;;28.90;57.90;;;;;;5045273;28;20025;-43
2022/08/11 12:39:09;;;;;;;1.48;1.20;;;29.00;57.70;;;;;;5044544;28;20100;-44
2022/08/11 12:47:09;;;;;;;1.45;1.35;;;29.00;57.00;;;;;;5025585;28;20090;-44
2022/08/11 12:52:28;;;;;;;1.50;1.27;;;29.10;55.90;;;;;;5044660;28;20547;-44
2022/08/11 12:54:59;;;;;;;1.33;1.05;;;29.20;55.90;;;;;;5044825;28;20036;-43
2022/08/11 13:05:55;;;;;;;1.48;1.00;;;29.20;54.70;;;;;;5042174;28;20101;-43
2022/08/11 13:08:23;;;;;;;2.28;0.93;;;29.30;55.30;;;;;;5045502;28;20882;-43
2022/08/11 13:13:38;;;;;;;1.77;1.25;;;29.30;55.90;;;;;;5044444;28;20098;-43
2022/08/11 13:16:05;;;;;;;1.30;1.20;;;29.40;55.00;;;;;;5041669;28;20444;-45
2022/08/11 13:18:32;;;;;;;1.35;0.98;;;29.40;54.60;;;;;;5047164;28;20036;-44
2022/08/11 13:20:58;;;;;;;1.25;1.02;;;29.50;54.10;;;;;;5047795;28;20054;-43
2022/08/11 13:23:25;;;;;;;2.88;1.02;;;29.60;54.40;;;;;;5048659;28;20531;-43
2022/08/11 13:25:53;;;;;;;1.67;1.15;;;29.60;54.70;;;;;;5048641;28;20468;-43
2022/08/11 13:28:20;;;;;;;1.40;1.17;;;29.50;55.10;;;;;;5048347;28;20048;-43
2022/08/11 13:33:35;;;;;;;1.40;1.30;;;29.50;54.90;;;;;;5027954;28;20115;-43
2022/08/11 13:36:02;;;;;;;1.20;1.10;;;29.60;54.00;;;;;;5044779;28;20024;-43
2022/08/11 13:38:28;;;;;;;2.30;1.25;;;29.60;53.90;;;;;;5048686;28;20536;-43
2022/08/11 13:40:54;;;;;;;2.63;1.40;;;29.60;53.70;;;;;;5048295;28;20164;-44
2022/08/11 13:43:22;;;;;;;1.30;1.20;;;29.60;53.00;;;;;;5048380;28;20036;-43
2022/08/11 13:45:48;;;;;;;1.30;1.20;;;29.70;53.00;;;;;;5047730;28;20465;-43
2022/08/11 13:48:15;;;;;;;1.35;1.23;;;29.80;53.50;;;;;;5048354;28;20025;-43
2022/08/11 13:53:29;;;;;;;1.23;1.13;;;29.80;53.50;;;;;;5049034;28;20091;-44
2022/08/11 13:55:57;;;;;;;3.92;1.20;;;29.90;53.60;;;;;;5047584;28;20024;-45
2022/08/11 13:58:23;;;;;;;1.45;1.20;;;29.90;53.60;;;;;;5048538;28;20025;-44
2022/08/11 14:00:51;;;;;;;1.30;1.10;;;29.90;53.40;;;;;;5048525;28;20086;-44
2022/08/11 14:03:22;;;;;;;2.65;1.48;;;29.90;52.90;;;;;;5047541;28;20460;-44
2022/08/11 14:05:51;;;;;;;1.55;1.35;;;30.00;52.80;;;;;;5047505;28;20033;-44
2022/08/11 14:08:22;;;;;;;2.47;1.25;;;30.00;52.70;;;;;;5048969;28;20188;-44
2022/08/11 14:13:36;;;;;;;1.30;1.15;;;30.00;51.70;;;;;;5046777;28;20100;-44
2022/08/11 14:13:39;;;;;;;1.50;1.40;;;30.10;51.90;;;;;;5047717;28;20036;-43
2022/08/11 14:16:10;;;;;;;1.40;1.30;;;30.10;51.60;;;;;;5047508;28;20028;-43
2022/08/11 14:18:43;;;;;;;1.40;1.30;;;30.20;51.70;;;;;;5037230;28;20255;-44
2022/08/11 14:23:58;;;;;;;1.48;1.30;;;30.20;51.40;;;;;;5038703;28;20044;-43
2022/08/11 14:26:28;;;;;;;1.17;1.17;;;30.30;51.60;;;;;;5045754;28;20040;-43
2022/08/11 14:29:13;;;;;;;1.35;1.20;;;30.30;51.90;;;;;;5043092;28;20133;-43
2022/08/11 14:31:48;;;;;;;1.27;1.15;;;30.40;52.00;;;;;;5046656;28;20029;-43
2022/08/11 14:34:17;;;;;;;0.90;0.90;;;30.40;52.00;;;;;;5047848;28;20388;-43
2022/08/11 14:36:45;;;;;;;1.30;1.20;;;30.40;52.20;;;;;;5045799;28;20021;-44
2022/08/11 14:39:16;;;;;;;1.30;1.20;;;30.40;51.90;;;;;;5047920;28;20021;-44
2022/08/11 14:47:39;;;;;;;1.20;1.10;;;30.50;51.60;;;;;;5047052;28;20052;-44
2022/08/11 14:50:07;;;;;;;1.20;1.10;;;30.40;51.70;;;;;;5047611;28;20116;-44
2022/08/11 14:52:33;;;;;;;1.30;1.00;;;30.50;51.60;;;;;;5046305;28;20503;-45
2022/08/11 14:57:46;;;;;;;2.45;1.20;;;30.50;51.50;;;;;;5045723;28;20044;-44
2022/08/11 15:00:14;;;;;;;1.65;1.40;;;30.60;51.40;;;;;;5047710;28;20036;-44
2022/08/11 15:05:26;;;;;;;1.10;1.00;;;30.70;51.60;;;;;;5037981;28;20500;-44
2022/08/11 15:07:54;;;;;;;1.73;1.48;;;30.70;51.70;;;;;;5046383;28;20465;-44
2022/08/11 15:10:21;;;;;;;1.88;1.00;;;30.70;51.30;;;;;;5047263;28;20013;-43
2022/08/11 15:12:47;;;;;;;1.30;1.20;;;30.70;51.30;;;;;;5045589;28;20094;-44
2022/08/11 15:18:00;;;;;;;2.50;1.05;;;30.80;51.90;;;;;;5047008;28;20558;-44
2022/08/11 15:26:08;;;;;;;1.17;1.10;;;30.80;51.10;;;;;;5036025;28;20404;-43
2022/08/11 15:45:46;;;;;;;1.10;1.08;;;30.90;50.50;;;;;;5046654;28;20032;-43
2022/08/11 15:48:13;;;;;;;1.20;1.10;;;30.90;50.10;;;;;;5026057;28;20044;-44
2022/08/11 15:50:44;;;;;;;1.20;1.10;;;31.00;50.00;;;;;;5043400;28;20041;-43
2022/08/11 15:53:33;;;;;;;1.37;1.10;;;31.00;49.90;;;;;;5046377;28;20116;-44
2022/08/11 15:56:00;;;;;;;2.55;1.25;;;31.00;50.10;;;;;;5044746;28;20437;-44
2022/08/11 16:04:12;;;;;;;1.30;1.20;;;31.00;48.80;;;;;;5045948;28;20476;-43
2022/08/11 16:06:52;;;;;;;1.20;1.10;;;31.10;48.80;;;;;;5044726;28;20495;-43
2022/08/11 16:09:23;;;;;;;1.20;1.10;;;31.10;49.10;;;;;;5045379;28;20009;-44
2022/08/11 16:11:52;;;;;;;1.20;1.10;;;31.10;49.30;;;;;;5044728;28;20036;-44
2022/08/11 16:17:05;;;;;;;1.13;1.02;;;31.20;49.00;;;;;;5045093;28;20060;-43
2022/08/11 16:19:33;;;;;;;1.25;1.15;;;31.20;49.20;;;;;;5045788;28;20036;-43
2022/08/11 16:22:00;;;;;;;1.25;1.10;;;31.20;49.50;;;;;;5044841;28;20016;-44
2022/08/11 16:24:27;;;;;;;3.40;1.30;;;31.20;50.00;;;;;;5044531;28;20574;-43
2022/08/11 16:26:55;;;;;;;1.45;1.20;;;31.20;49.50;;;;;;5045080;28;20049;-43
2022/08/11 16:29:23;;;;;;;1.17;1.10;;;31.20;49.30;;;;;;5044787;28;20263;-43
2022/08/11 16:32:15;;;;;;;1.58;1.27;;;31.30;49.70;;;;;;5045445;28;20056;-43
2022/08/11 16:40:10;;;;;;;1.13;0.80;;;31.30;50.30;;;;;;5045871;28;20091;-43
2022/08/11 16:48:08;;;;;;;3.35;1.20;;;31.30;50.00;;;;;;5045726;28;20439;-44
2022/08/11 16:50:36;;;;;;;1.20;1.10;;;31.30;49.60;;;;;;5044462;28;20029;-44
2022/08/11 16:53:01;;;;;;;1.40;1.30;;;31.30;49.60;;;;;;5044582;28;20120;-44
2022/08/11 16:55:31;;;;;;;1.33;1.23;;;31.30;49.60;;;;;;5045112;28;20017;-44
2022/08/11 17:00:43;;;;;;;1.77;1.40;;;31.30;49.60;;;;;;5045408;28;20084;-44
2022/08/11 17:14:37;;;;;;;1.20;1.10;;;31.30;50.10;;;;;;5044862;28;20036;-45
2022/08/11 17:17:08;;;;;;;1.35;1.25;;;31.30;50.50;;;;;;5044497;28;20048;-43
2022/08/11 17:19:39;;;;;;;2.45;1.27;;;31.30;49.90;;;;;;5044665;28;20032;-44
2022/08/11 17:24:51;;;;;;;1.20;1.10;;;31.30;49.60;;;;;;5034613;28;20044;-44
2022/08/11 17:27:18;;;;;;;1.60;1.50;;;31.30;49.60;;;;;;5044232;28;20097;-44
2022/08/11 17:29:54;;;;;;;1.17;1.13;;;31.30;49.60;;;;;;5044769;28;20036;-44
2022/08/11 17:35:31;;;;;;;1.52;1.30;;;31.30;49.70;;;;;;5034430;28;20423;-44
2022/08/11 17:38:05;;;;;;;1.70;1.25;;;31.30;49.40;;;;;;5044840;28;20107;-42
2022/08/11 17:40:37;;;;;;;2.13;1.13;;;31.30;49.10;;;;;;5043928;28;20025;-43
2022/08/11 17:48:33;;;;;;;1.30;1.20;;;31.30;49.10;;;;;;5043524;28;20037;-43
2022/08/11 17:59:50;;;;;;;3.47;1.15;;;31.40;49.10;;;;;;5043778;28;20493;-43
2022/08/11 18:05:04;;;;;;;1.48;1.00;;;31.40;48.70;;;;;;5046151;28;20080;-43
